createdAt,value
2019-01-17T00:01:47.945Z,10.70
2019-01-17T00:04:35.037Z,9.70
2019-01-17T00:07:21.358Z,10.50
2019-01-17T00:10:04.836Z,11.30
2019-01-17T00:12:44.297Z,11.13
2019-01-17T00:15:44.942Z,11.50
2019-01-17T00:18:33.090Z,12.20
2019-01-17T00:21:13.777Z,12.33
2019-01-17T00:23:54.405Z,12.90
2019-01-17T00:26:31.101Z,12.63
2019-01-17T00:29:28.353Z,12.83
2019-01-17T00:32:22.664Z,12.97
2019-01-17T00:35:16.622Z,13.70
2019-01-17T00:38:10.913Z,14.13
2019-01-17T00:41:04.871Z,13.27
2019-01-17T00:43:53.054Z,13.53
2019-01-17T00:46:34.729Z,14.47
2019-01-17T00:49:28.535Z,12.93
2019-01-17T00:52:14.901Z,14.50
2019-01-17T00:54:58.270Z,13.63
2019-01-17T00:57:39.521Z,13.37
2019-01-17T01:00:29.590Z,14.37
2019-01-17T01:03:20.586Z,13.27
2019-01-17T01:06:23.897Z,11.63
2019-01-17T01:09:01.724Z,12.33
2019-01-17T01:12:01.926Z,10.10
2019-01-17T01:14:41.294Z,10.50
2019-01-17T01:17:42.861Z,10.97
2019-01-17T01:20:34.589Z,11.53
2019-01-17T01:23:28.843Z,11.00
2019-01-17T01:26:15.593Z,9.67
2019-01-17T01:29:00.060Z,8.70
2019-01-17T01:31:48.209Z,8.93
2019-01-17T01:34:48.485Z,8.87
2019-01-17T01:37:30.203Z,8.67
2019-01-17T01:40:21.384Z,8.30
2019-01-17T01:43:27.634Z,6.67
2019-01-17T01:46:18.005Z,6.87
2019-01-17T01:49:04.907Z,6.47
2019-01-17T01:51:53.050Z,6.43
2019-01-17T01:54:22.312Z,6.40
2019-01-17T01:56:51.512Z,6.33
2019-01-17T01:59:20.632Z,6.20
2019-01-17T02:01:49.762Z,6.50
2019-01-17T02:04:18.940Z,5.77
2019-01-17T02:06:48.078Z,5.90
2019-01-17T02:09:17.508Z,5.97
2019-01-17T02:11:46.662Z,6.20
2019-01-17T02:14:15.885Z,5.87
2019-01-17T02:16:45.000Z,5.70
2019-01-17T02:19:14.154Z,5.13
2019-01-17T02:21:43.269Z,5.17
2019-01-17T02:24:12.378Z,5.93
2019-01-17T02:26:42.456Z,5.30
2019-01-17T02:29:11.662Z,5.00
2019-01-17T02:31:40.830Z,5.10
2019-01-17T02:34:09.934Z,5.70
2019-01-17T02:36:39.041Z,5.10
2019-01-17T02:39:08.842Z,5.13
2019-01-17T02:41:38.006Z,5.53
2019-01-17T02:44:07.189Z,4.77
2019-01-17T02:46:36.285Z,5.00
2019-01-17T02:49:05.529Z,4.80
2019-01-17T02:51:34.649Z,4.77
2019-01-17T02:54:04.061Z,5.23
2019-01-17T02:56:33.184Z,5.30
2019-01-17T02:59:02.326Z,5.17
2019-01-17T03:01:31.433Z,5.07
2019-01-17T03:04:00.557Z,5.00
2019-01-17T03:06:29.689Z,5.50
2019-01-17T03:08:58.801Z,5.10
2019-01-17T03:11:27.914Z,5.03
2019-01-17T03:13:57.067Z,5.27
2019-01-17T03:16:26.171Z,4.93
2019-01-17T03:18:55.275Z,4.80
2019-01-17T03:21:24.426Z,5.13
2019-01-17T03:23:53.589Z,5.13
2019-01-17T03:26:22.697Z,5.20
2019-01-17T03:28:51.805Z,5.00
2019-01-17T03:31:20.913Z,5.20
2019-01-17T03:33:50.025Z,5.70
2019-01-17T03:36:19.186Z,5.23
2019-01-17T03:38:48.294Z,5.00
2019-01-17T03:41:17.397Z,5.00
2019-01-17T03:43:46.629Z,4.80
2019-01-17T03:46:15.846Z,4.53
2019-01-17T03:48:44.940Z,4.20
2019-01-17T03:51:14.051Z,4.30
2019-01-17T03:53:43.250Z,4.03
2019-01-17T03:56:12.343Z,4.30
2019-01-17T03:58:41.462Z,4.27
2019-01-17T04:01:10.569Z,4.30
2019-01-17T04:03:39.697Z,4.30
2019-01-17T04:06:08.837Z,5.10
2019-01-17T04:08:37.943Z,4.80
2019-01-17T04:11:07.057Z,4.77
2019-01-17T04:13:36.185Z,4.57
2019-01-17T04:16:05.701Z,5.23
2019-01-17T04:18:34.845Z,5.03
2019-01-17T04:21:04.001Z,4.90
2019-01-17T04:23:33.107Z,5.20
2019-01-17T04:26:02.225Z,5.00
2019-01-17T04:28:31.350Z,4.90
2019-01-17T04:31:00.470Z,5.07
2019-01-17T04:33:29.605Z,5.10
2019-01-17T04:35:58.705Z,5.00
2019-01-17T04:38:27.809Z,5.37
2019-01-17T04:40:56.945Z,4.67
2019-01-17T04:43:26.049Z,5.27
2019-01-17T04:45:55.192Z,5.53
2019-01-17T04:48:24.390Z,5.10
2019-01-17T04:50:53.502Z,5.33
2019-01-17T04:53:22.602Z,5.10
2019-01-17T04:55:51.737Z,4.87
2019-01-17T04:58:20.833Z,5.60
2019-01-17T05:00:50.048Z,5.33
2019-01-17T05:03:19.205Z,5.60
2019-01-17T05:05:48.309Z,4.77
2019-01-17T05:08:17.420Z,6.37
2019-01-17T05:10:46.558Z,5.50
2019-01-17T05:13:15.667Z,6.33
2019-01-17T05:15:44.786Z,5.23
2019-01-17T05:18:13.900Z,5.23
2019-01-17T05:20:43.033Z,6.53
2019-01-17T05:23:12.177Z,6.77
2019-01-17T05:25:41.327Z,7.27
2019-01-17T05:28:10.471Z,6.50
2019-01-17T05:30:39.570Z,6.87
2019-01-17T05:33:08.725Z,7.70
2019-01-17T05:35:37.829Z,6.87
2019-01-17T05:38:06.945Z,6.97
2019-01-17T05:40:36.117Z,6.20
2019-01-17T05:43:05.320Z,6.57
2019-01-17T05:45:34.414Z,6.67
2019-01-17T05:48:03.552Z,6.60
2019-01-17T05:50:32.681Z,6.13
2019-01-17T05:53:01.841Z,6.90
2019-01-17T05:55:30.928Z,7.47
2019-01-17T05:58:00.106Z,8.00
2019-01-17T06:00:29.216Z,8.60
2019-01-17T06:02:58.376Z,8.27
2019-01-17T06:05:27.508Z,8.10
2019-01-17T06:07:56.680Z,8.30
2019-01-17T06:10:25.773Z,8.13
2019-01-17T06:12:56.089Z,8.70
2019-01-17T06:15:25.893Z,8.47
2019-01-17T06:17:55.013Z,7.87
2019-01-17T06:20:24.241Z,8.37
2019-01-17T06:22:53.422Z,8.60
2019-01-17T06:25:27.981Z,8.20
2019-01-17T06:27:53.581Z,9.17
2019-01-17T06:30:22.760Z,9.20
2019-01-17T06:32:51.876Z,8.53
2019-01-17T06:35:21.033Z,8.43
2019-01-17T06:37:50.161Z,8.13
2019-01-17T06:40:25.239Z,9.30
2019-01-17T06:42:54.372Z,9.63
2019-01-17T06:45:23.482Z,11.33
2019-01-17T06:47:52.741Z,10.03
2019-01-17T06:50:21.956Z,10.93
2019-01-17T06:52:51.073Z,11.03
2019-01-17T06:55:20.252Z,11.47
2019-01-17T06:57:49.530Z,10.60
2019-01-17T07:00:18.891Z,10.97
2019-01-17T07:02:48.107Z,11.40
2019-01-17T07:05:17.625Z,11.73
2019-01-17T07:07:46.756Z,11.67
2019-01-17T07:10:16.766Z,11.40
2019-01-17T07:12:46.208Z,10.43
2019-01-17T07:15:15.536Z,11.00
2019-01-17T07:17:44.761Z,11.30
2019-01-17T07:20:15.533Z,11.07
2019-01-17T07:22:44.730Z,10.93
2019-01-17T07:25:13.846Z,10.63
2019-01-17T07:27:42.969Z,10.33
2019-01-17T07:30:17.961Z,9.67
2019-01-17T07:32:47.061Z,9.00
2019-01-17T07:35:16.269Z,9.00
2019-01-17T07:37:45.373Z,9.13
2019-01-17T07:40:15.086Z,8.50
2019-01-17T07:42:44.248Z,7.97
2019-01-17T07:45:19.737Z,8.13
2019-01-17T07:47:48.958Z,7.77
2019-01-17T07:50:18.065Z,7.30
2019-01-17T07:52:47.218Z,8.43
2019-01-17T07:55:16.523Z,8.10
2019-01-17T07:57:45.779Z,7.83
2019-01-17T08:00:17.478Z,8.30
2019-01-17T08:02:46.582Z,7.93
2019-01-17T08:05:15.781Z,8.93
2019-01-17T08:07:44.905Z,8.20
2019-01-17T08:10:15.486Z,8.80
2019-01-17T08:12:45.133Z,8.57
2019-01-17T08:15:14.697Z,7.73
2019-01-17T08:17:43.872Z,8.77
2019-01-17T08:20:16.007Z,8.63
2019-01-17T08:22:45.192Z,7.77
2019-01-17T08:25:14.343Z,7.23
2019-01-17T08:27:44.502Z,7.43
2019-01-17T08:30:16.193Z,7.60
2019-01-17T08:32:45.296Z,7.80
2019-01-17T08:35:14.855Z,7.03
2019-01-17T08:37:43.986Z,8.30
2019-01-17T08:40:20.474Z,8.13
2019-01-17T08:42:49.745Z,8.63
2019-01-17T08:45:18.920Z,8.50
2019-01-17T08:47:48.172Z,8.37
2019-01-17T08:50:17.761Z,8.10
2019-01-17T08:52:46.913Z,8.50
2019-01-17T08:55:16.092Z,9.73
2019-01-17T08:57:45.517Z,10.63
2019-01-17T09:00:17.126Z,10.67
2019-01-17T09:02:46.301Z,9.20
2019-01-17T09:05:18.402Z,9.77
2019-01-17T09:07:47.535Z,9.73
2019-01-17T09:10:22.113Z,12.67
2019-01-17T09:12:51.497Z,13.70
2019-01-17T09:15:22.281Z,13.20
2019-01-17T09:17:51.376Z,12.43
2019-01-17T09:20:20.510Z,14.10
2019-01-17T09:22:49.744Z,12.30
2019-01-17T09:25:18.841Z,14.20
2019-01-17T09:27:47.967Z,13.93
2019-01-17T09:30:18.126Z,14.87
2019-01-17T09:32:47.251Z,13.87
2019-01-17T09:35:16.661Z,13.40
2019-01-17T09:37:45.890Z,13.53
2019-01-17T09:40:16.896Z,12.70
2019-01-17T09:42:46.072Z,13.43
2019-01-17T09:45:15.365Z,12.87
2019-01-17T09:47:44.509Z,11.73
2019-01-17T09:50:15.981Z,12.20
2019-01-17T09:52:45.305Z,11.70
2019-01-17T09:55:16.925Z,10.77
2019-01-17T09:57:46.022Z,11.90
2019-01-17T10:00:20.393Z,11.83
2019-01-17T10:02:49.491Z,11.83
2019-01-17T10:05:20.973Z,10.60
2019-01-17T10:07:50.144Z,11.00
2019-01-17T10:10:19.661Z,10.93
2019-01-17T10:12:50.574Z,11.67
2019-01-17T10:15:26.226Z,11.13
2019-01-17T10:18:18.454Z,11.20
2019-01-17T10:21:43.806Z,12.90
2019-01-17T10:24:47.668Z,11.37
2019-01-17T10:27:42.467Z,14.70
2019-01-17T10:30:38.283Z,11.53
2019-01-17T10:33:21.623Z,10.80
2019-01-17T10:36:30.926Z,11.80
2019-01-17T10:39:27.120Z,10.27
2019-01-17T10:42:23.114Z,9.93
2019-01-17T10:45:34.946Z,9.93
2019-01-17T10:48:29.778Z,10.47
2019-01-17T10:51:44.295Z,11.53
2019-01-17T10:54:35.950Z,13.43
2019-01-17T10:57:41.126Z,10.67
2019-01-17T11:00:29.234Z,11.57
2019-01-17T11:03:47.198Z,11.47
2019-01-17T11:06:42.618Z,9.77
2019-01-17T11:09:52.078Z,9.07
2019-01-17T11:12:36.182Z,8.93
2019-01-17T11:15:31.894Z,9.93
2019-01-17T11:18:26.133Z,9.13
2019-01-17T11:21:31.970Z,9.07
2019-01-17T11:24:23.271Z,9.07
2019-01-17T11:27:27.078Z,8.90
2019-01-17T11:30:36.134Z,8.43
2019-01-17T11:33:32.338Z,8.70
2019-01-17T11:36:44.945Z,8.93
2019-01-17T11:39:34.750Z,8.53
2019-01-17T11:42:22.969Z,8.77
2019-01-17T11:45:00.026Z,9.33
2019-01-17T11:48:00.389Z,9.77
2019-01-17T11:51:16.958Z,9.80
2019-01-17T11:54:33.751Z,9.07
2019-01-17T11:57:41.757Z,9.33
2019-01-17T12:01:07.295Z,9.97
2019-01-17T12:04:17.162Z,10.03
2019-01-17T12:06:46.316Z,11.07
2019-01-17T12:09:15.559Z,10.13
2019-01-17T12:11:44.722Z,10.43
2019-01-17T12:14:13.950Z,9.27
2019-01-17T12:16:43.223Z,9.63
2019-01-17T12:19:12.603Z,9.70
2019-01-17T12:21:41.818Z,10.03
2019-01-17T12:24:10.939Z,10.23
2019-01-17T12:26:40.067Z,9.77
2019-01-17T12:29:09.413Z,10.00
2019-01-17T12:31:38.574Z,10.50
2019-01-17T12:34:07.754Z,11.03
2019-01-17T12:36:36.940Z,10.57
2019-01-17T12:39:09.199Z,12.97
2019-01-17T12:41:38.659Z,12.07
2019-01-17T12:44:07.905Z,10.37
2019-01-17T12:46:37.141Z,10.43
2019-01-17T12:49:06.322Z,9.90
2019-01-17T12:51:35.502Z,10.20
2019-01-17T12:54:04.874Z,9.73
2019-01-17T12:56:34.126Z,10.97
2019-01-17T12:59:03.278Z,10.20
2019-01-17T13:01:32.455Z,10.77
2019-01-17T13:04:01.722Z,11.20
2019-01-17T13:06:30.978Z,9.60
2019-01-17T13:09:00.108Z,9.47
2019-01-17T13:11:31.285Z,10.20
2019-01-17T13:14:00.534Z,10.00
2019-01-17T13:16:29.744Z,9.70
2019-01-17T13:18:58.913Z,10.00
2019-01-17T13:21:28.146Z,9.40
2019-01-17T13:23:57.293Z,9.87
2019-01-17T13:26:26.482Z,9.73
2019-01-17T13:28:55.781Z,9.43
2019-01-17T13:31:25.070Z,10.90
2019-01-17T13:33:54.502Z,10.47
2019-01-17T13:36:23.671Z,11.67
2019-01-17T13:38:52.898Z,12.63
2019-01-17T13:41:22.119Z,14.77
2019-01-17T13:43:51.406Z,13.20
2019-01-17T13:46:20.722Z,12.60
2019-01-17T13:48:49.935Z,12.27
2019-01-17T13:51:19.115Z,13.20
2019-01-17T13:53:48.262Z,12.50
2019-01-17T13:56:17.434Z,11.73
2019-01-17T13:58:46.582Z,11.47
2019-01-17T14:01:15.872Z,11.83
2019-01-17T14:03:45.085Z,12.23
2019-01-17T14:06:14.385Z,12.70
2019-01-17T14:08:43.594Z,12.63
2019-01-17T14:11:12.734Z,12.67
2019-01-17T14:13:41.974Z,12.67
2019-01-17T14:16:11.102Z,12.33
2019-01-17T14:18:40.265Z,13.27
2019-01-17T14:21:09.765Z,14.10
2019-01-17T14:23:38.963Z,13.63
2019-01-17T14:26:08.146Z,15.17
2019-01-17T14:28:37.307Z,18.27
2019-01-17T14:31:06.525Z,16.63
2019-01-17T14:33:35.717Z,16.50
2019-01-17T14:36:05.422Z,15.97
2019-01-17T14:38:34.516Z,16.07
2019-01-17T14:41:03.644Z,15.10
2019-01-17T14:43:32.857Z,16.57
2019-01-17T14:46:01.960Z,16.50
2019-01-17T14:48:31.074Z,15.13
2019-01-17T14:51:00.216Z,15.87
2019-01-17T14:53:29.320Z,16.00
2019-01-17T14:55:58.474Z,18.30
2019-01-17T14:58:27.592Z,17.03
2019-01-17T15:00:56.951Z,18.37
2019-01-17T15:03:26.073Z,19.93
2019-01-17T15:05:55.238Z,18.80
2019-01-17T15:08:24.436Z,19.93
2019-01-17T15:10:53.554Z,19.13
2019-01-17T15:13:22.665Z,18.20
2019-01-17T15:15:51.810Z,19.13
2019-01-17T15:18:21.049Z,19.13
2019-01-17T15:20:50.164Z,19.53
2019-01-17T15:23:19.273Z,19.77
2019-01-17T15:25:48.427Z,20.73
2019-01-17T15:28:17.529Z,19.33
2019-01-17T15:30:46.641Z,20.70
2019-01-17T15:33:15.793Z,21.47
2019-01-17T15:35:45.091Z,21.07
2019-01-17T15:38:14.216Z,19.60
2019-01-17T15:40:43.341Z,19.80
2019-01-17T15:43:12.530Z,20.70
2019-01-17T15:45:41.681Z,19.17
2019-01-17T15:48:10.805Z,17.27
2019-01-17T15:50:39.955Z,16.30
2019-01-17T15:53:09.074Z,18.60
2019-01-17T15:55:38.256Z,19.30
2019-01-17T15:58:07.415Z,17.80
2019-01-17T16:00:36.601Z,19.13
2019-01-17T16:03:05.708Z,18.43
2019-01-17T16:05:35.087Z,20.13
2019-01-17T16:08:04.189Z,20.93
2019-01-17T16:10:33.509Z,23.57
2019-01-17T16:13:02.720Z,23.00
2019-01-17T16:15:31.858Z,21.63
2019-01-17T16:18:00.965Z,20.50
2019-01-17T16:20:30.110Z,19.93
2019-01-17T16:22:59.306Z,19.13
2019-01-17T16:25:28.427Z,19.30
2019-01-17T16:27:57.673Z,18.93
2019-01-17T16:30:31.586Z,18.73
2019-01-17T16:33:00.704Z,20.70
2019-01-17T16:35:29.830Z,19.80
2019-01-17T16:37:58.982Z,19.73
2019-01-17T16:40:28.203Z,18.00
2019-01-17T16:42:57.371Z,18.23
2019-01-17T16:45:26.493Z,17.83
2019-01-17T16:47:55.601Z,17.07
2019-01-17T16:50:26.362Z,19.20
2019-01-17T16:52:55.489Z,20.67
2019-01-17T16:55:24.597Z,19.83
2019-01-17T16:57:53.786Z,20.53
2019-01-17T17:00:29.370Z,19.97
2019-01-17T17:02:58.493Z,18.50
2019-01-17T17:05:27.608Z,17.53
2019-01-17T17:07:56.737Z,18.27
2019-01-17T17:10:25.849Z,17.53
2019-01-17T17:12:54.957Z,17.10
2019-01-17T17:15:24.297Z,17.47
2019-01-17T17:17:53.508Z,16.40
2019-01-17T17:20:22.841Z,16.73
2019-01-17T17:22:51.957Z,17.93
2019-01-17T17:25:21.069Z,17.73
2019-01-17T17:27:55.495Z,18.67
2019-01-17T17:30:22.878Z,19.27
2019-01-17T17:32:52.164Z,18.30
2019-01-17T17:35:21.370Z,17.27
2019-01-17T17:37:50.523Z,17.60
2019-01-17T17:40:22.017Z,19.90
2019-01-17T17:42:51.137Z,18.47
2019-01-17T17:45:20.292Z,18.10
2019-01-17T17:47:49.425Z,20.03
2019-01-17T17:50:19.717Z,21.07
2019-01-17T17:52:48.852Z,23.53
2019-01-17T17:55:18.005Z,22.17
2019-01-17T17:57:47.202Z,23.40
2019-01-17T18:00:24.393Z,24.87
2019-01-17T18:02:54.016Z,26.87
2019-01-17T18:05:23.347Z,30.27
2019-01-17T18:07:52.548Z,27.40
2019-01-17T18:10:21.992Z,27.87
2019-01-17T18:12:51.181Z,28.27
2019-01-17T18:15:20.614Z,26.87
2019-01-17T18:17:49.792Z,24.93
2019-01-17T18:20:19.049Z,25.77
2019-01-17T18:22:48.285Z,25.00
2019-01-17T18:25:17.477Z,24.03
2019-01-17T18:27:46.593Z,22.90
2019-01-17T18:30:21.006Z,23.80
2019-01-17T18:32:50.140Z,24.17
2019-01-17T18:35:19.423Z,24.30
2019-01-17T18:37:48.847Z,25.27
2019-01-17T18:40:18.489Z,26.13
2019-01-17T18:42:47.994Z,25.00
2019-01-17T18:45:19.051Z,25.07
2019-01-17T18:47:48.174Z,25.20
2019-01-17T18:50:19.640Z,24.83
2019-01-17T18:52:48.749Z,25.10
2019-01-17T18:55:17.944Z,26.30
2019-01-17T18:57:47.068Z,26.37
2019-01-17T19:00:29.376Z,26.43
2019-01-17T19:02:58.564Z,27.77
2019-01-17T19:05:27.736Z,25.53
2019-01-17T19:07:56.934Z,26.10
2019-01-17T19:10:26.045Z,25.53
2019-01-17T19:12:55.171Z,24.43
2019-01-17T19:15:26.789Z,25.50
2019-01-17T19:17:56.110Z,25.93
2019-01-17T19:20:25.297Z,25.40
2019-01-17T19:22:54.468Z,25.23
2019-01-17T19:25:23.589Z,26.07
2019-01-17T19:27:52.698Z,25.90
2019-01-17T19:30:24.066Z,27.23
2019-01-17T19:32:53.381Z,26.53
2019-01-17T19:35:22.608Z,27.23
2019-01-17T19:37:51.885Z,27.07
2019-01-17T19:40:22.781Z,27.10
2019-01-17T19:42:51.985Z,26.93
2019-01-17T19:45:21.325Z,26.33
2019-01-17T19:47:50.432Z,30.00
2019-01-17T19:50:27.889Z,28.87
2019-01-17T19:52:57.001Z,26.73
2019-01-17T19:55:26.150Z,27.13
2019-01-17T19:57:55.294Z,25.70
2019-01-17T20:00:24.777Z,26.03
2019-01-17T20:02:54.031Z,26.27
2019-01-17T20:05:23.997Z,24.43
2019-01-17T20:07:53.337Z,24.40
2019-01-17T20:10:27.448Z,25.27
2019-01-17T20:12:56.613Z,25.47
2019-01-17T20:15:25.729Z,26.87
2019-01-17T20:17:54.962Z,26.67
2019-01-17T20:20:24.134Z,27.17
2019-01-17T20:22:53.489Z,26.07
2019-01-17T20:25:22.704Z,27.67
2019-01-17T20:27:51.961Z,27.90
2019-01-17T20:30:23.481Z,25.80
2019-01-17T20:32:52.956Z,26.90
2019-01-17T20:35:22.136Z,25.70
2019-01-17T20:37:51.266Z,24.37
2019-01-17T20:40:22.021Z,25.13
2019-01-17T20:42:51.218Z,25.33
2019-01-17T20:45:20.731Z,24.13
2019-01-17T20:47:49.978Z,23.47
2019-01-17T20:50:21.503Z,23.83
2019-01-17T20:52:50.613Z,23.57
2019-01-17T20:55:19.753Z,22.97
2019-01-17T20:57:50.462Z,23.37
2019-01-17T21:01:05.625Z,22.50
2019-01-17T21:03:35.301Z,19.80
2019-01-17T21:06:04.485Z,17.40
2019-01-17T21:08:33.614Z,17.43
2019-01-17T21:11:02.726Z,16.50
2019-01-17T21:13:31.853Z,15.67
2019-01-17T21:16:01.425Z,17.47
2019-01-17T21:18:30.762Z,18.20
2019-01-17T21:20:59.916Z,16.90
2019-01-17T21:23:29.140Z,16.97
2019-01-17T21:25:58.280Z,17.63
2019-01-17T21:28:27.429Z,17.30
2019-01-17T21:30:56.572Z,16.87
2019-01-17T21:33:25.681Z,16.07
2019-01-17T21:35:54.845Z,17.67
2019-01-17T21:38:23.953Z,16.97
2019-01-17T21:40:53.092Z,17.17
2019-01-17T21:43:22.233Z,17.00
2019-01-17T21:45:51.353Z,17.27
2019-01-17T21:48:20.474Z,18.03
2019-01-17T21:50:49.633Z,18.43
2019-01-17T21:53:18.737Z,18.13
2019-01-17T21:55:47.869Z,17.57
2019-01-17T21:58:17.029Z,17.80
2019-01-17T22:00:46.146Z,17.17
2019-01-17T22:03:15.255Z,17.43
2019-01-17T22:05:44.408Z,16.83
2019-01-17T22:08:13.550Z,17.70
2019-01-17T22:10:42.669Z,17.33
2019-01-17T22:13:11.798Z,17.57
2019-01-17T22:15:40.924Z,16.57
2019-01-17T22:18:10.062Z,16.47
2019-01-17T22:20:39.188Z,17.43
2019-01-17T22:23:09.065Z,16.30
2019-01-17T22:25:38.221Z,14.87
2019-01-17T22:28:07.338Z,14.70
2019-01-17T22:30:36.444Z,13.73
2019-01-17T22:33:05.601Z,13.17
2019-01-17T22:35:34.701Z,13.80
2019-01-17T22:38:03.801Z,13.70
2019-01-17T22:40:32.942Z,13.23
2019-01-17T22:43:02.052Z,12.73
2019-01-17T22:45:31.548Z,12.43
2019-01-17T22:48:00.714Z,12.23
2019-01-17T22:50:29.830Z,12.87
2019-01-17T22:52:58.951Z,11.60
2019-01-17T22:55:28.105Z,11.90
2019-01-17T22:57:57.204Z,12.07
2019-01-17T23:00:49.254Z,11.13
2019-01-17T23:03:20.227Z,10.80
2019-01-17T23:05:49.369Z,10.57
2019-01-17T23:11:05.662Z,10.87
2019-01-17T23:13:34.818Z,11.73
2019-01-17T23:16:04.478Z,10.73
2019-01-17T23:18:33.615Z,11.07
2019-01-17T23:21:02.758Z,12.57
2019-01-17T23:23:31.880Z,11.77
2019-01-17T23:26:01.114Z,10.13
2019-01-17T23:28:30.259Z,10.77
2019-01-17T23:30:59.430Z,11.03
2019-01-17T23:33:28.566Z,10.83
2019-01-17T23:35:57.697Z,11.30
2019-01-17T23:38:26.919Z,10.87
2019-01-17T23:40:56.135Z,11.40
2019-01-17T23:43:25.286Z,11.83
2019-01-17T23:45:54.425Z,11.57
2019-01-17T23:48:23.562Z,12.33
2019-01-17T23:50:52.698Z,11.07
2019-01-17T23:53:21.829Z,10.73
2019-01-17T23:55:50.994Z,10.17
2019-01-17T23:58:20.130Z,10.27
